BOX911 EDDF-EDDP
Flight info
| Callsign | BOX911 |
|---|---|
| Flight time | 0h 35m |
| Altitude | 23000 |
| Route | SULUS7S/18 SULUS Z12 LASGA/N0430F220 T953 VOCIM/N0423F210 T954 GOXLI GOXLI1V |
| Aircraft | B77L/H-SDE1E2E3FGHIJ2J3J4J5M1RWXY/LB1D1 |
Departure
| Time | 2026-05-04 14:23 |
|---|---|
| Airport | Frankfurt Main Airport (EDDF) |
Arrival
| Time | 2026-05-04 14:59 |
|---|---|
| Airport | Leipzig/Halle Airport (EDDP) |
| Time | Latitude | Longitude | Altitude | Speed | Heading |
|---|---|---|---|---|---|
| 2026-05-04 13:49 | 50.03780 | 8.53366 | 354 ft | 0 kts | 339° |
| 2026-05-04 14:13 | 50.03778 | 8.53367 | 358 ft | 2 kts | 339° |
| 2026-05-04 14:14 | 50.03754 | 8.53381 | 357 ft | 4 kts | 340° |
| 2026-05-04 14:14 | 50.03708 | 8.53403 | 357 ft | 4 kts | 5° |
| 2026-05-04 14:14 | 50.03688 | 8.53393 | 357 ft | 4 kts | 46° |
| 2026-05-04 14:15 | 50.03669 | 8.53324 | 356 ft | 2 kts | 70° |
| 2026-05-04 14:15 | 50.03668 | 8.53323 | 356 ft | 0 kts | 69° |
| 2026-05-04 14:19 | 50.03669 | 8.53326 | 356 ft | 1 kts | 69° |
| 2026-05-04 14:20 | 50.03679 | 8.53365 | 356 ft | 7 kts | 69° |
| 2026-05-04 14:20 | 50.03702 | 8.53463 | 355 ft | 12 kts | 69° |
| 2026-05-04 14:20 | 50.03670 | 8.53571 | 351 ft | 13 kts | 165° |
| 2026-05-04 14:21 | 50.03591 | 8.53364 | 353 ft | 17 kts | 249° |
| 2026-05-04 14:21 | 50.03544 | 8.53166 | 351 ft | 22 kts | 250° |
| 2026-05-04 14:21 | 50.03484 | 8.52920 | 347 ft | 25 kts | 249° |
| 2026-05-04 14:21 | 50.03424 | 8.52687 | 337 ft | 17 kts | 250° |
| 2026-05-04 14:22 | 50.03352 | 8.52593 | 337 ft | 14 kts | 181° |
| 2026-05-04 14:22 | 50.03338 | 8.52593 | 339 ft | 0 kts | 180° |
| 2026-05-04 14:22 | 50.03208 | 8.52595 | 337 ft | 53 kts | 179° |
| 2026-05-04 14:23 | 50.01440 | 8.52604 | 647 ft | 168 kts | 182° |
| 2026-05-04 14:23 | 50.00295 | 8.52612 | 1615 ft | 168 kts | 183° |
| 2026-05-04 14:23 | 49.99116 | 8.52626 | 2507 ft | 173 kts | 184° |
| 2026-05-04 14:24 | 49.97819 | 8.52630 | 2960 ft | 201 kts | 182° |
| 2026-05-04 14:24 | 49.96372 | 8.53247 | 3205 ft | 239 kts | 146° |
| 2026-05-04 14:24 | 49.95301 | 8.55385 | 3731 ft | 262 kts | 117° |
| 2026-05-04 14:24 | 49.94482 | 8.57958 | 4643 ft | 266 kts | 117° |
| 2026-05-04 14:25 | 49.93646 | 8.60507 | 5850 ft | 264 kts | 119° |
| 2026-05-04 14:25 | 49.91904 | 8.65632 | 7873 ft | 274 kts | 121° |
| 2026-05-04 14:25 | 49.90993 | 8.68244 | 8904 ft | 277 kts | 122° |
| 2026-05-04 14:26 | 49.90067 | 8.70872 | 9948 ft | 277 kts | 122° |
| 2026-05-04 14:26 | 49.89114 | 8.73550 | 10679 ft | 291 kts | 122° |
| 2026-05-04 14:26 | 49.88087 | 8.76430 | 10971 ft | 320 kts | 120° |
| 2026-05-04 14:26 | 49.87412 | 8.79890 | 11194 ft | 357 kts | 98° |
| 2026-05-04 14:27 | 49.87609 | 8.83859 | 11742 ft | 378 kts | 82° |
| 2026-05-04 14:27 | 49.88102 | 8.87938 | 12772 ft | 390 kts | 82° |
| 2026-05-04 14:27 | 49.88600 | 8.92120 | 14011 ft | 396 kts | 81° |
| 2026-05-04 14:27 | 49.89097 | 8.96335 | 15068 ft | 401 kts | 82° |
| 2026-05-04 14:28 | 49.89596 | 9.00650 | 16112 ft | 411 kts | 82° |
| 2026-05-04 14:28 | 49.90097 | 9.05065 | 17140 ft | 420 kts | 82° |
| 2026-05-04 14:28 | 49.90598 | 9.09518 | 18178 ft | 429 kts | 82° |
| 2026-05-04 14:28 | 49.91118 | 9.14176 | 19008 ft | 436 kts | 82° |
| 2026-05-04 14:29 | 49.92147 | 9.23507 | 20651 ft | 447 kts | 83° |
| 2026-05-04 14:29 | 49.93198 | 9.33148 | 22241 ft | 459 kts | 83° |
| 2026-05-04 14:30 | 49.93730 | 9.38062 | 22930 ft | 464 kts | 83° |
| 2026-05-04 14:30 | 49.94270 | 9.43061 | 22988 ft | 471 kts | 83° |
| 2026-05-04 14:30 | 49.95341 | 9.53029 | 22970 ft | 466 kts | 83° |
| 2026-05-04 14:31 | 49.95872 | 9.57992 | 22962 ft | 466 kts | 83° |
| 2026-05-04 14:31 | 49.96925 | 9.67936 | 22980 ft | 467 kts | 83° |
| 2026-05-04 14:32 | 49.97972 | 9.77900 | 22971 ft | 467 kts | 83° |
| 2026-05-04 14:32 | 49.98493 | 9.82889 | 22967 ft | 467 kts | 83° |
| 2026-05-04 14:32 | 49.99005 | 9.87824 | 22966 ft | 467 kts | 83° |
| 2026-05-04 14:32 | 49.99521 | 9.92812 | 22965 ft | 467 kts | 83° |
| 2026-05-04 14:33 | 50.00034 | 9.97791 | 22960 ft | 467 kts | 83° |
| 2026-05-04 14:33 | 50.00544 | 10.02762 | 22962 ft | 466 kts | 83° |
| 2026-05-04 14:33 | 50.01054 | 10.07754 | 22967 ft | 466 kts | 83° |
| 2026-05-04 14:33 | 50.01560 | 10.12735 | 22966 ft | 466 kts | 83° |
| 2026-05-04 14:34 | 50.02062 | 10.17689 | 22985 ft | 467 kts | 83° |
| 2026-05-04 14:34 | 50.02569 | 10.22729 | 23666 ft | 472 kts | 83° |
| 2026-05-04 14:34 | 50.03076 | 10.27794 | 24395 ft | 475 kts | 83° |
| 2026-05-04 14:34 | 50.03586 | 10.32899 | 25132 ft | 479 kts | 83° |
| 2026-05-04 14:35 | 50.04097 | 10.38048 | 25773 ft | 484 kts | 83° |
| 2026-05-04 14:35 | 50.04604 | 10.43168 | 26517 ft | 486 kts | 83° |
| 2026-05-04 14:35 | 50.05116 | 10.48355 | 27002 ft | 486 kts | 83° |
| 2026-05-04 14:35 | 50.05626 | 10.53561 | 26965 ft | 486 kts | 83° |
| 2026-05-04 14:36 | 50.06134 | 10.58750 | 26976 ft | 484 kts | 83° |
| 2026-05-04 14:36 | 50.06635 | 10.63905 | 26971 ft | 483 kts | 83° |
| 2026-05-04 14:36 | 50.07378 | 10.69027 | 26963 ft | 487 kts | 73° |
| 2026-05-04 14:36 | 50.08709 | 10.73889 | 26973 ft | 490 kts | 63° |
| 2026-05-04 14:37 | 50.10514 | 10.78391 | 26975 ft | 492 kts | 53° |
| 2026-05-04 14:37 | 50.12776 | 10.82409 | 26983 ft | 493 kts | 46° |
| 2026-05-04 14:37 | 50.15146 | 10.86277 | 26975 ft | 493 kts | 46° |
| 2026-05-04 14:37 | 50.17492 | 10.90182 | 26982 ft | 492 kts | 47° |
| 2026-05-04 14:38 | 50.19798 | 10.94146 | 26980 ft | 492 kts | 48° |
| 2026-05-04 14:38 | 50.22075 | 10.98130 | 26983 ft | 491 kts | 48° |
| 2026-05-04 14:38 | 50.24345 | 11.02121 | 26979 ft | 491 kts | 48° |
| 2026-05-04 14:38 | 50.26729 | 11.05919 | 26968 ft | 489 kts | 40° |
| 2026-05-04 14:39 | 50.29419 | 11.09027 | 26987 ft | 487 kts | 31° |
| 2026-05-04 14:39 | 50.32381 | 11.11571 | 27007 ft | 485 kts | 23° |
| 2026-05-04 14:39 | 50.35497 | 11.13499 | 26989 ft | 483 kts | 17° |
| 2026-05-04 14:40 | 50.41885 | 11.16917 | 26984 ft | 483 kts | 17° |
| 2026-05-04 14:40 | 50.45058 | 11.18619 | 26982 ft | 483 kts | 17° |
| 2026-05-04 14:40 | 50.48246 | 11.20352 | 26981 ft | 483 kts | 17° |
| 2026-05-04 14:40 | 50.51414 | 11.22095 | 26973 ft | 483 kts | 17° |
| 2026-05-04 14:41 | 50.54584 | 11.23853 | 26977 ft | 483 kts | 17° |
| 2026-05-04 14:41 | 50.57764 | 11.25626 | 26983 ft | 483 kts | 17° |
| 2026-05-04 14:41 | 50.64101 | 11.29169 | 26976 ft | 483 kts | 17° |
| 2026-05-04 14:42 | 50.70439 | 11.32723 | 26976 ft | 483 kts | 17° |
| 2026-05-04 14:42 | 50.73604 | 11.34499 | 26976 ft | 483 kts | 17° |
| 2026-05-04 14:42 | 50.76771 | 11.36278 | 26974 ft | 483 kts | 17° |
| 2026-05-04 14:43 | 50.78860 | 11.37454 | 26980 ft | 483 kts | 17° |
| 2026-05-04 14:43 | 50.82037 | 11.39243 | 26973 ft | 483 kts | 17° |
| 2026-05-04 14:43 | 50.86215 | 11.41598 | 26854 ft | 472 kts | 17° |
| 2026-05-04 14:43 | 50.88276 | 11.42762 | 26465 ft | 457 kts | 17° |
| 2026-05-04 14:44 | 50.92203 | 11.44982 | 25406 ft | 453 kts | 17° |
| 2026-05-04 14:44 | 50.94211 | 11.46117 | 24891 ft | 454 kts | 17° |
| 2026-05-04 14:44 | 50.97190 | 11.47805 | 24193 ft | 454 kts | 18° |
| 2026-05-04 14:44 | 51.00163 | 11.49496 | 23492 ft | 453 kts | 18° |
| 2026-05-04 14:45 | 51.03123 | 11.51183 | 22678 ft | 452 kts | 18° |
| 2026-05-04 14:45 | 51.06040 | 11.52848 | 21945 ft | 449 kts | 18° |
| 2026-05-04 14:45 | 51.08961 | 11.54678 | 21192 ft | 443 kts | 25° |
| 2026-05-04 14:45 | 51.11445 | 11.57450 | 20198 ft | 433 kts | 43° |
| 2026-05-04 14:46 | 51.13181 | 11.61211 | 19017 ft | 428 kts | 62° |
| 2026-05-04 14:46 | 51.14490 | 11.65438 | 17773 ft | 424 kts | 64° |
| 2026-05-04 14:46 | 51.15790 | 11.69631 | 16498 ft | 418 kts | 63° |
| 2026-05-04 14:46 | 51.17084 | 11.73714 | 15391 ft | 409 kts | 63° |
| 2026-05-04 14:47 | 51.18376 | 11.77723 | 14334 ft | 401 kts | 63° |
| 2026-05-04 14:47 | 51.19648 | 11.81637 | 13176 ft | 394 kts | 63° |
| 2026-05-04 14:47 | 51.20899 | 11.85476 | 12211 ft | 384 kts | 63° |
| 2026-05-04 14:47 | 51.22089 | 11.89136 | 11885 ft | 357 kts | 63° |
| 2026-05-04 14:48 | 51.23075 | 11.92585 | 11677 ft | 329 kts | 75° |
| 2026-05-04 14:48 | 51.23371 | 11.96069 | 11358 ft | 308 kts | 89° |
| 2026-05-04 14:48 | 51.23529 | 11.99414 | 10888 ft | 298 kts | 81° |
| 2026-05-04 14:48 | 51.23989 | 12.02618 | 10419 ft | 297 kts | 75° |
| 2026-05-04 14:49 | 51.24543 | 12.05787 | 10059 ft | 295 kts | 75° |
| 2026-05-04 14:49 | 51.25104 | 12.08925 | 9656 ft | 293 kts | 74° |
| 2026-05-04 14:49 | 51.25661 | 12.12049 | 9275 ft | 291 kts | 75° |
| 2026-05-04 14:49 | 51.26215 | 12.15151 | 8913 ft | 290 kts | 74° |
| 2026-05-04 14:50 | 51.26767 | 12.18237 | 8511 ft | 288 kts | 74° |
| 2026-05-04 14:50 | 51.27316 | 12.21313 | 8135 ft | 287 kts | 74° |
| 2026-05-04 14:50 | 51.27856 | 12.24367 | 7763 ft | 285 kts | 74° |
| 2026-05-04 14:50 | 51.28384 | 12.27363 | 7396 ft | 283 kts | 75° |
| 2026-05-04 14:51 | 51.28915 | 12.30382 | 7028 ft | 281 kts | 74° |
| 2026-05-04 14:51 | 51.29440 | 12.33373 | 6699 ft | 278 kts | 74° |
| 2026-05-04 14:51 | 51.29960 | 12.36352 | 6344 ft | 277 kts | 74° |
| 2026-05-04 14:51 | 51.30470 | 12.39294 | 6010 ft | 274 kts | 74° |
| 2026-05-04 14:52 | 51.30979 | 12.42223 | 5643 ft | 272 kts | 74° |
| 2026-05-04 14:52 | 51.31487 | 12.45118 | 5282 ft | 269 kts | 74° |
| 2026-05-04 14:52 | 51.31977 | 12.47943 | 4948 ft | 264 kts | 71° |
| 2026-05-04 14:52 | 51.32848 | 12.50450 | 4583 ft | 258 kts | 44° |
| 2026-05-04 14:53 | 51.34331 | 12.51933 | 4246 ft | 251 kts | 15° |
| 2026-05-04 14:53 | 51.36022 | 12.52474 | 3906 ft | 246 kts | 6° |
| 2026-05-04 14:53 | 51.37722 | 12.52810 | 3604 ft | 246 kts | 5° |
| 2026-05-04 14:53 | 51.39423 | 12.53114 | 3211 ft | 246 kts | 5° |
| 2026-05-04 14:54 | 51.41093 | 12.53191 | 3002 ft | 232 kts | 346° |
| 2026-05-04 14:54 | 51.42424 | 12.52072 | 3005 ft | 206 kts | 309° |
| 2026-05-04 14:54 | 51.42968 | 12.50151 | 3000 ft | 184 kts | 269° |
| 2026-05-04 14:54 | 51.42748 | 12.48120 | 3026 ft | 185 kts | 257° |
| 2026-05-04 14:55 | 51.42492 | 12.46068 | 2955 ft | 195 kts | 259° |
| 2026-05-04 14:55 | 51.42278 | 12.43928 | 2731 ft | 191 kts | 263° |
| 2026-05-04 14:55 | 51.42158 | 12.41896 | 2495 ft | 176 kts | 265° |
| 2026-05-04 14:55 | 51.42067 | 12.39966 | 2268 ft | 174 kts | 265° |
| 2026-05-04 14:56 | 51.41984 | 12.38111 | 2041 ft | 159 kts | 266° |
| 2026-05-04 14:56 | 51.41900 | 12.36323 | 1835 ft | 160 kts | 265° |
| 2026-05-04 14:56 | 51.41818 | 12.34609 | 1655 ft | 150 kts | 265° |
| 2026-05-04 14:56 | 51.41743 | 12.32996 | 1450 ft | 136 kts | 266° |
| 2026-05-04 14:57 | 51.41676 | 12.31485 | 1273 ft | 137 kts | 265° |
| 2026-05-04 14:57 | 51.41597 | 12.29948 | 1089 ft | 139 kts | 265° |
| 2026-05-04 14:57 | 51.41528 | 12.28398 | 896 ft | 139 kts | 265° |
| 2026-05-04 14:57 | 51.41453 | 12.26901 | 687 ft | 137 kts | 267° |
| 2026-05-04 14:58 | 51.41391 | 12.25365 | 518 ft | 136 kts | 266° |
| 2026-05-04 14:58 | 51.41324 | 12.23932 | 473 ft | 119 kts | 266° |
| 2026-05-04 14:58 | 51.41273 | 12.22863 | 468 ft | 70 kts | 265° |
| 2026-05-04 14:58 | 51.41244 | 12.22249 | 464 ft | 51 kts | 265° |
| 2026-05-04 14:59 | 51.41161 | 12.21753 | 460 ft | 34 kts | 238° |
| 2026-05-04 14:59 | 51.41068 | 12.21667 | 463 ft | 11 kts | 145° |
| 2026-05-04 14:59 | 51.41061 | 12.21970 | 463 ft | 20 kts | 86° |
| 2026-05-04 15:00 | 51.41070 | 12.22208 | 464 ft | 23 kts | 86° |
| 2026-05-04 15:00 | 51.41084 | 12.22498 | 464 ft | 29 kts | 85° |
| 2026-05-04 15:00 | 51.41100 | 12.22821 | 469 ft | 29 kts | 86° |
| 2026-05-04 15:01 | 51.41130 | 12.23453 | 479 ft | 28 kts | 85° |
| 2026-05-04 15:01 | 51.41145 | 12.23775 | 471 ft | 30 kts | 85° |
| 2026-05-04 15:01 | 51.41160 | 12.24087 | 472 ft | 26 kts | 85° |
| 2026-05-04 15:01 | 51.41173 | 12.24375 | 472 ft | 25 kts | 85° |
| 2026-05-04 15:02 | 51.41143 | 12.24573 | 474 ft | 15 kts | 155° |
| 2026-05-04 15:02 | 51.41041 | 12.24650 | 474 ft | 18 kts | 174° |
| 2026-05-04 15:02 | 51.40931 | 12.24665 | 468 ft | 9 kts | 171° |
| 2026-05-04 15:02 | 51.40904 | 12.24745 | 470 ft | 7 kts | 84° |
| 2026-05-04 15:03 | 51.40906 | 12.24789 | 470 ft | 4 kts | 85° |
| 2026-05-04 15:03 | 51.40907 | 12.24824 | 470 ft | 1 kts | 85° |